Azalea Ace — A8ZJ6 — position and weather

sailwx.info

Track history (hours):
 
Tides and Currents Weather Stations Pressure Air Temp Water Temp Dewpoint Dewpoint Depression Visibility Wind Speed Wind Dir Waves Ship Positions

Azalea Ace

Last reported at 2014-Oct-08 07:33 UTC. Time now 2014-Oct-20 08:06 UTC.
Position S 32°36' E 152°57'.
Warning: this ship's position is 12 days out of date.

Length 180 m; draft 7.4 m.

Type: Ship. MMSI: 636015228.

Date/timePositionNaut miles runAvg speedWind from/ knotsBaromVisibWave heightAir tempDewpointWater temp
2014-Oct-08 07:33S 32°36' E 152°57'1413.9
2014-Oct-08 06:33S 32°49' E 152°51'1513.9
2014-Oct-08 05:30S 33°02' E 152°45'36813.2
2014-Oct-07 01:32S 38°24' E 149°03'1413.8
2014-Oct-07 00:29S 38°32' E 148°49'  
2014-Oct-04 17:21S 38°56' E 145°37'1215.4
2014-Oct-04 16:33S 39°02' E 145°51'1515.2
2014-Oct-04 15:33S 39°09' E 146°08'1514.6
2014-Oct-04 14:33S 39°10' E 146°27'1615.6
2014-Oct-04 13:33S 39°05' E 146°46'1515.1
2014-Oct-04 12:33S 39°00' E 147°04'1515.4
2014-Oct-04 11:33S 38°56' E 147°23'1615.6
2014-Oct-04 10:33S 38°50' E 147°42'1615.9
2014-Oct-04 09:33S 38°46' E 148°01'5216.0
2014-Oct-04 06:19S 38°22' E 149°00'1215.6
2014-Oct-04 05:33S 38°15' E 149°12'1615.8
2014-Oct-04 04:33S 38°05' E 149°29'1615.8
2014-Oct-04 03:33S 37°56' E 149°45'1615.6
2014-Oct-04 02:32S 37°47' E 150°01'1615.2
2014-Oct-04 01:29S 37°33' E 150°11'1515.9
2014-Oct-04 00:33S 37°18' E 150°15'243 7.5
2014-Oct-02 16:08S 33°28' E 151°49'814.3
2014-Oct-02 15:33S 33°21' E 151°55'1414.3
2014-Oct-02 14:33S 33°08' E 152°04'1514.8
2014-Oct-02 13:33S 32°56' E 152°14'1515.1
2014-Oct-02 12:33S 32°44' E 152°25'1515.3
2014-Oct-02 11:33S 32°32' E 152°36'1615.2
2014-Oct-02 10:31S 32°18' E 152°44'1615.2
2014-Oct-02 09:29S 32°04' E 152°51'22814.3
2014-Oct-01 17:32S 28°20' E 153°46'1414.7
2014-Oct-01 16:33S 28°06' E 153°45'1414.5
2014-Oct-01 15:33S 27°51' E 153°44'1515.2
2014-Oct-01 14:33S 27°36' E 153°43'1515.3
2014-Oct-01 13:33S 27°21' E 153°41'1515.0
2014-Oct-01 12:34S 27°06' E 153°39'1313.4
2014-Oct-01 11:34S 26°55' E 153°32'1514.8
2014-Oct-01 10:34S 26°48' E 153°17'6 6.4
2014-Oct-01 09:34S 26°49' E 153°10'1616.3
2014-Oct-01 08:34S 27°04' E 153°18'1414.3
2014-Oct-01 07:33S 27°17' E 153°14'7 6.6
2014-Oct-01 06:33S 27°23' E 153°10'0 0.0
2014-Oct-01 05:33S 27°23' E 153°10'0 0.0
2014-Oct-01 04:33S 27°23' E 153°10'0 0.0
2014-Oct-01 03:33S 27°23' E 153°10'0 0.0
2014-Oct-01 02:33S 27°23' E 153°10'0 0.0
2014-Oct-01 01:33S 27°23' E 153°10'0 0.0
2014-Oct-01 00:33S 27°23' E 153°10'6 6.2
2014-Sep-30 23:33S 27°17' E 153°13'9 9.2
2014-Sep-30 22:34S 27°11' E 153°21'1716.8
2014-Sep-30 21:34S 26°56' E 153°12'8810.6
2014-Sep-30 13:13S 25°32' E 153°42'1516.0
2014-Sep-30 12:15S 25°17' E 153°47'  
Track history (hours):
 
Tides and Currents Weather Stations Pressure Air Temp Water Temp Dewpoint Dewpoint Depression Visibility Wind Speed Wind Dir Waves Ship Positions

Azalea Ace

Last reported at 2014-Oct-08 07:33 UTC. Time now 2014-Oct-20 08:06 UTC.
Position S 32°36' E 152°57'.
Warning: this ship's position is 12 days out of date.

Length 180 m; draft 7.4 m.

Type: Ship. MMSI: 636015228.

Date/timePositionNaut miles runAvg speedWind from/ knotsBaromVisibWave heightAir tempDewpointWater temp
2014-Oct-08 07:33S 32°36' E 152°57'1413.9
2014-Oct-08 06:33S 32°49' E 152°51'1513.9
2014-Oct-08 05:30S 33°02' E 152°45'36813.2
2014-Oct-07 01:32S 38°24' E 149°03'1413.8
2014-Oct-07 00:29S 38°32' E 148°49'  
2014-Oct-04 17:21S 38°56' E 145°37'1215.4
2014-Oct-04 16:33S 39°02' E 145°51'1515.2
2014-Oct-04 15:33S 39°09' E 146°08'1514.6
2014-Oct-04 14:33S 39°10' E 146°27'1615.6
2014-Oct-04 13:33S 39°05' E 146°46'1515.1
2014-Oct-04 12:33S 39°00' E 147°04'1515.4
2014-Oct-04 11:33S 38°56' E 147°23'1615.6
2014-Oct-04 10:33S 38°50' E 147°42'1615.9
2014-Oct-04 09:33S 38°46' E 148°01'5216.0
2014-Oct-04 06:19S 38°22' E 149°00'1215.6
2014-Oct-04 05:33S 38°15' E 149°12'1615.8
2014-Oct-04 04:33S 38°05' E 149°29'1615.8
2014-Oct-04 03:33S 37°56' E 149°45'1615.6
2014-Oct-04 02:32S 37°47' E 150°01'1615.2
2014-Oct-04 01:29S 37°33' E 150°11'1515.9
2014-Oct-04 00:33S 37°18' E 150°15'243 7.5
2014-Oct-02 16:08S 33°28' E 151°49'814.3
2014-Oct-02 15:33S 33°21' E 151°55'1414.3
2014-Oct-02 14:33S 33°08' E 152°04'1514.8
2014-Oct-02 13:33S 32°56' E 152°14'1515.1
2014-Oct-02 12:33S 32°44' E 152°25'1515.3
2014-Oct-02 11:33S 32°32' E 152°36'1615.2
2014-Oct-02 10:31S 32°18' E 152°44'1615.2
2014-Oct-02 09:29S 32°04' E 152°51'22814.3
2014-Oct-01 17:32S 28°20' E 153°46'1414.7
2014-Oct-01 16:33S 28°06' E 153°45'1414.5
2014-Oct-01 15:33S 27°51' E 153°44'1515.2
2014-Oct-01 14:33S 27°36' E 153°43'1515.3
2014-Oct-01 13:33S 27°21' E 153°41'1515.0
2014-Oct-01 12:34S 27°06' E 153°39'1313.4
2014-Oct-01 11:34S 26°55' E 153°32'1514.8
2014-Oct-01 10:34S 26°48' E 153°17'6 6.4
2014-Oct-01 09:34S 26°49' E 153°10'1616.3
2014-Oct-01 08:34S 27°04' E 153°18'1414.3
2014-Oct-01 07:33S 27°17' E 153°14'7 6.6
2014-Oct-01 06:33S 27°23' E 153°10'0 0.0
2014-Oct-01 05:33S 27°23' E 153°10'0 0.0
2014-Oct-01 04:33S 27°23' E 153°10'0 0.0
2014-Oct-01 03:33S 27°23' E 153°10'0 0.0
2014-Oct-01 02:33S 27°23' E 153°10'0 0.0
2014-Oct-01 01:33S 27°23' E 153°10'0 0.0
2014-Oct-01 00:33S 27°23' E 153°10'6 6.2
2014-Sep-30 23:33S 27°17' E 153°13'9 9.2
2014-Sep-30 22:34S 27°11' E 153°21'1716.8
2014-Sep-30 21:34S 26°56' E 153°12'8810.6
2014-Sep-30 13:13S 25°32' E 153°42'1516.0
2014-Sep-30 12:15S 25°17' E 153°47'  

Dump ship's entire track history